Terminal Aerodrome Forecast
Issued by NWS Medford, OR

Home | Current Version | Previous Version | Text Only | Print | Product List | Glossary On
Versions: 1 2 3 4 5 6 7 8 9 10 11 12 13 14 15 16 17 18 19 20 21 22
000
FTUS46 KMFR 280223 AAB
TAFMFR
TAF AMD
KMFR 280223Z 2802/2824 VRB03KT P6SM -SHRA BKN020 OVC025
     FM280700 00000KT 4SM BR BKN035
     FM281400 00000KT 3SM BR BKN010
     FM281800 07010KT P6SM FEW020=

USA.gov is the U.S. government's official web portal to all federal, state and local government web resources and services.